Time;durP1;ratioP1;P1;durP2;ratioP2;P2;SDS_P1;SDS_P2;PMS_P1;PMS_P2;Temp;Humidity;BMP_temperature;BMP_pressure;BME280_temperature;BME280_humidity;BME280_pressure;Samples;Min_cycle;Max_cycle;Signal;HPM_P1;HPM_P2
2021/05/17 00:03:03;;;;;;;1.13;0.93;;;;;;;10.82;100.00;97793.94;10502637;28;20179;-80
2021/05/17 00:08:23;;;;;;;1.03;0.77;;;;;;;10.74;100.00;97803.56;10503810;28;20179;-79
2021/05/17 00:13:42;;;;;;;0.90;0.50;;;;;;;10.71;100.00;97809.94;10503035;28;20685;-79
2021/05/17 00:19:01;;;;;;;1.03;0.60;;;;;;;10.54;100.00;97800.13;10502165;28;20166;-79
2021/05/17 00:24:21;;;;;;;2.50;2.30;;;;;;;10.50;100.00;97799.44;10503179;28;20178;-78
2021/05/17 00:29:40;;;;;;;0.90;0.63;;;;;;;10.47;100.00;97800.31;10502412;28;20736;-81
2021/05/17 00:35:00;;;;;;;0.80;0.40;;;;;;;10.47;100.00;97805.81;10500399;28;20261;-81
2021/05/17 00:40:20;;;;;;;1.00;0.60;;;;;;;10.41;100.00;97795.75;10502429;28;20628;-80
2021/05/17 00:45:41;;;;;;;3.33;0.73;;;;;;;10.33;100.00;97797.91;10502163;28;20771;-80
2021/05/17 00:51:00;;;;;;;1.10;0.60;;;;;;;10.21;100.00;97794.25;10499459;28;20218;-81
2021/05/17 00:56:22;;;;;;;1.07;0.97;;;;;;;10.07;100.00;97794.59;10501893;28;20183;-79
2021/05/17 01:01:41;;;;;;;1.40;1.30;;;;;;;9.97;100.00;97790.84;10501580;28;20179;-80
2021/05/17 01:07:02;;;;;;;1.70;1.10;;;;;;;9.93;100.00;97797.63;10501356;28;20178;-80
2021/05/17 01:12:21;;;;;;;0.97;0.87;;;;;;;9.89;100.00;97791.44;10499635;28;20242;-80
2021/05/17 01:17:41;;;;;;;0.93;0.70;;;;;;;9.85;100.00;97805.25;10499730;28;20178;-79
2021/05/17 01:23:30;;;;;;;1.17;0.83;;;;;;;9.89;100.00;97807.91;10500674;28;20253;-79
2021/05/17 01:28:48;;;;;;;1.83;1.20;;;;;;;9.93;100.00;97800.38;10499815;28;20214;-81
2021/05/17 01:34:09;;;;;;;1.10;0.80;;;;;;;10.00;100.00;97806.50;10498459;28;20272;-79
2021/05/17 01:39:29;;;;;;;1.00;0.90;;;;;;;10.15;100.00;97815.97;10500022;28;20170;-79
2021/05/17 01:44:50;;;;;;;1.70;0.67;;;;;;;10.26;100.00;97810.25;10499916;28;20555;-80
2021/05/17 01:50:13;;;;;;;1.53;1.00;;;;;;;10.27;100.00;97806.28;10497073;28;20214;-79
2021/05/17 01:55:33;;;;;;;1.10;0.80;;;;;;;10.32;100.00;97814.03;10499465;28;20179;-80
2021/05/17 02:00:52;;;;;;;1.93;1.10;;;;;;;10.24;100.00;97816.16;10498848;28;20170;-80
2021/05/17 02:06:14;;;;;;;2.93;1.37;;;;;;;10.30;100.00;97816.44;10497820;28;20539;-82
2021/05/17 02:11:33;;;;;;;1.50;1.37;;;;;;;10.23;100.00;97820.13;10498631;28;20206;-81
2021/05/17 02:16:52;;;;;;;2.00;1.13;;;;;;;10.20;100.00;97817.44;10497585;28;20178;-80
2021/05/17 02:22:11;;;;;;;0.90;0.70;;;;;;;10.15;100.00;97826.19;10498529;28;20518;-79
2021/05/17 02:27:30;;;;;;;1.27;1.07;;;;;;;10.07;100.00;97822.06;10496789;28;20218;-79
2021/05/17 02:32:50;;;;;;;1.20;0.80;;;;;;;10.08;100.00;97818.13;10496381;28;20202;-79
2021/05/17 02:38:10;;;;;;;1.73;1.23;;;;;;;10.06;100.00;97831.50;10497844;28;20179;-79
2021/05/17 02:43:32;;;;;;;0.90;0.53;;;;;;;10.04;100.00;97825.66;10497883;28;20550;-79
2021/05/17 02:48:51;;;;;;;0.80;0.50;;;;;;;10.09;100.00;97833.41;10496353;28;20183;-81
2021/05/17 02:54:25;;;;;;;0.90;0.67;;;;;;;10.13;100.00;97843.13;10497037;28;20553;-82
2021/05/17 03:00:02;;;;;;;2.50;1.37;;;;;;;10.13;100.00;97850.56;10496554;28;20262;-79
2021/05/17 03:05:21;;;;;;;1.60;1.13;;;;;;;10.18;100.00;97831.63;10496084;28;20525;-80
2021/05/17 03:10:43;;;;;;;1.10;0.93;;;;;;;10.15;100.00;97837.97;10497216;28;20671;-80
2021/05/17 03:16:03;;;;;;;1.00;0.73;;;;;;;10.05;100.00;97838.19;10505722;28;20596;-81
2021/05/17 03:21:26;;;;;;;1.57;0.80;;;;;;;10.12;100.00;97844.31;10503308;28;20262;-81
2021/05/17 03:26:47;;;;;;;1.53;1.13;;;;;;;10.03;100.00;97848.81;10505228;28;20297;-81
2021/05/17 03:32:06;;;;;;;0.93;0.70;;;;;;;10.01;100.00;97854.00;10502520;28;20206;-79
2021/05/17 03:37:25;;;;;;;0.90;0.70;;;;;;;9.95;100.00;97861.13;10504965;28;20174;-80
2021/05/17 03:42:45;;;;;;;1.30;0.90;;;;;;;9.99;100.00;97867.38;10503650;28;20187;-79
2021/05/17 03:48:05;;;;;;;1.30;0.67;;;;;;;10.02;100.00;97872.00;10503217;28;20186;-81
2021/05/17 03:53:24;;;;;;;0.93;0.70;;;;;;;10.11;100.00;97874.94;10503817;28;20210;-80
2021/05/17 03:58:42;;;;;;;1.03;0.93;;;;;;;10.08;100.00;97870.31;10504051;28;20621;-81
2021/05/17 04:04:02;;;;;;;1.97;0.87;;;;;;;10.29;100.00;97872.59;10502450;28;20625;-80
2021/05/17 04:14:59;;;;;;;1.00;0.60;;;;;;;10.33;100.00;97882.31;10503048;28;20179;-80
2021/05/17 04:20:18;;;;;;;4.33;0.80;;;;;;;10.36;100.00;97886.97;10501892;28;20175;-80
2021/05/17 04:25:37;;;;;;;1.10;0.80;;;;;;;10.42;100.00;97886.03;10502890;28;20171;-80
2021/05/17 04:30:56;;;;;;;1.17;0.83;;;;;;;10.41;100.00;97901.00;10502571;28;20587;-80
2021/05/17 04:36:17;;;;;;;1.30;1.03;;;;;;;10.44;100.00;97896.63;10501470;28;20178;-80
2021/05/17 04:41:37;;;;;;;2.90;1.20;;;;;;;10.53;100.00;97903.06;10501757;28;20212;-80
2021/05/17 04:46:56;;;;;;;1.60;0.70;;;;;;;10.51;100.00;97904.69;10501030;28;20194;-79
2021/05/17 04:52:15;;;;;;;1.27;1.07;;;;;;;10.60;100.00;97905.66;10501800;28;20217;-79
2021/05/17 04:57:33;;;;;;;1.30;1.00;;;;;;;10.76;100.00;97913.16;10501932;28;20179;-80
2021/05/17 05:02:52;;;;;;;1.00;0.90;;;;;;;10.78;100.00;97914.28;10500427;28;20576;-81
2021/05/17 05:08:11;;;;;;;1.00;0.70;;;;;;;10.67;100.00;97923.97;10501215;28;20170;-79
2021/05/17 05:13:30;;;;;;;1.23;1.10;;;;;;;10.46;100.00;97925.22;10500619;28;20194;-80
2021/05/17 05:18:49;;;;;;;0.90;0.60;;;;;;;10.61;100.00;97920.97;10499571;28;20202;-80
2021/05/17 05:24:09;;;;;;;1.00;0.60;;;;;;;10.74;100.00;97930.06;10500772;28;20604;-79
2021/05/17 05:29:36;;;;;;;0.90;0.73;;;;;;;10.82;100.00;97937.00;10499802;28;20577;-80
2021/05/17 05:34:55;;;;;;;1.30;0.97;;;;;;;10.90;100.00;97932.88;10498514;28;20191;-82
2021/05/17 05:40:14;;;;;;;1.20;0.80;;;;;;;10.94;100.00;97933.56;10499890;28;20202;-79
2021/05/17 05:45:34;;;;;;;0.90;0.70;;;;;;;11.22;100.00;97943.91;10499864;28;20187;-80
2021/05/17 05:50:53;;;;;;;1.20;0.80;;;;;;;11.23;100.00;97945.41;10498155;28;20691;-80
2021/05/17 05:56:12;;;;;;;1.00;0.70;;;;;;;11.12;100.00;97951.19;10499349;28;20174;-81
2021/05/17 06:01:31;;;;;;;1.60;1.10;;;;;;;11.05;100.00;97966.31;10499277;28;20186;-80
2021/05/17 06:06:50;;;;;;;1.10;0.97;;;;;;;10.83;100.00;97968.78;10498205;28;20174;-80
2021/05/17 06:12:10;;;;;;;0.90;0.70;;;;;;;10.83;100.00;97968.03;10498561;28;20202;-80
2021/05/17 06:17:29;;;;;;;1.00;0.83;;;;;;;10.78;100.00;97974.78;10497290;28;20171;-79
2021/05/17 06:22:50;;;;;;;1.70;1.20;;;;;;;10.66;100.00;97982.94;10498552;28;20633;-79
2021/05/17 06:28:12;;;;;;;0.93;0.60;;;;;;;10.62;100.00;97976.75;10497985;28;20222;-79
2021/05/17 06:33:31;;;;;;;0.80;0.50;;;;;;;10.61;100.00;97975.19;10496453;28;20587;-81
2021/05/17 06:38:53;;;;;;;1.20;1.10;;;;;;;10.63;100.00;97981.81;10498053;28;20166;-80
2021/05/17 06:44:14;;;;;;;1.33;1.23;;;;;;;10.76;100.00;97976.44;10497629;28;20525;-80
2021/05/17 06:49:33;;;;;;;2.23;0.83;;;;;;;10.83;100.00;97981.78;10495627;28;20203;-78
2021/05/17 06:55:01;;;;;;;1.30;0.90;;;;;;;10.91;100.00;97992.19;10496384;28;20210;-81
2021/05/17 07:00:29;;;;;;;1.60;0.90;;;;;;;11.46;100.00;98003.09;10497503;28;20178;-81
2021/05/17 07:05:49;;;;;;;1.10;1.00;;;;;;;11.52;100.00;98001.38;10496252;28;20202;-79
2021/05/17 07:16:46;;;;;;;1.40;0.90;;;;;;;11.49;100.00;98013.22;10489437;28;20542;-79
2021/05/17 07:27:43;;;;;;;1.23;0.83;;;;;;;11.76;100.00;98016.50;10465987;28;20698;-79
2021/05/17 07:33:02;;;;;;;1.00;0.80;;;;;;;11.76;100.00;98017.28;10453739;28;20595;-78
2021/05/17 07:38:26;;;;;;;1.00;0.57;;;;;;;11.90;100.00;98011.41;10455329;28;20199;-78
2021/05/17 07:43:46;;;;;;;0.90;0.70;;;;;;;11.86;100.00;98027.25;10455290;28;20176;-78
2021/05/17 07:49:15;;;;;;;0.83;0.57;;;;;;;11.85;100.00;98020.19;10453904;28;20654;-79
2021/05/17 07:54:36;;;;;;;1.00;0.60;;;;;;;11.69;100.00;98030.47;10453545;28;20235;-79
2021/05/17 07:59:56;;;;;;;0.87;0.63;;;;;;;11.73;100.00;98023.66;10444952;28;20175;-81
2021/05/17 08:05:16;;;;;;;1.23;0.97;;;;;;;11.91;100.00;98029.50;10463985;28;20195;-76
2021/05/17 08:10:35;;;;;;;1.87;1.27;;;;;;;13.02;100.00;98036.59;10486075;28;20206;-77
2021/05/17 08:15:55;;;;;;;1.00;0.70;;;;;;;12.89;100.00;98035.81;10502069;28;20171;-76
2021/05/17 08:21:16;;;;;;;0.90;0.60;;;;;;;12.48;100.00;98035.81;10502239;28;20179;-78
2021/05/17 08:26:35;;;;;;;1.00;0.70;;;;;;;12.85;100.00;98044.19;10503416;28;20687;-77
2021/05/17 08:31:55;;;;;;;0.87;0.50;;;;;;;12.55;100.00;98046.63;10501168;28;20288;-78
2021/05/17 08:37:14;;;;;;;0.90;0.57;;;;;;;13.32;100.00;98034.09;10502837;28;20171;-77
2021/05/17 08:42:33;;;;;;;0.90;0.67;;;;;;;12.99;100.00;98038.25;10502837;28;20174;-76
2021/05/17 08:47:53;;;;;;;0.80;0.50;;;;;;;13.13;100.00;98061.91;10499900;28;20273;-75
2021/05/17 08:53:13;;;;;;;0.90;0.57;;;;;;;13.40;100.00;98056.75;10500420;28;20210;-76
2021/05/17 08:58:33;;;;;;;1.00;0.70;;;;;;;14.07;100.00;98062.38;10502089;28;20186;-76
2021/05/17 09:04:03;;;;;;;2.00;0.70;;;;;;;14.31;100.00;98048.97;10500377;28;20182;-76
2021/05/17 09:09:31;;;;;;;0.87;0.57;;;;;;;14.47;100.00;98052.31;10500607;28;20187;-76
2021/05/17 09:14:55;;;;;;;0.93;0.57;;;;;;;14.16;99.98;98053.44;10499921;28;20277;-74
2021/05/17 09:20:25;;;;;;;1.97;1.00;;;;;;;14.82;94.04;98039.97;10498901;28;20190;-74
2021/05/17 09:26:16;;;;;;;3.80;0.90;;;;;;;14.55;95.09;98046.09;10499903;28;20648;-74
2021/05/17 09:31:37;;;;;;;0.93;0.67;;;;;;;14.26;100.00;98050.31;10497693;28;20234;-73
2021/05/17 09:37:01;;;;;;;1.77;0.90;;;;;;;14.59;90.67;98038.44;10500437;28;20547;-73
2021/05/17 09:42:23;;;;;;;1.00;0.60;;;;;;;14.75;94.19;98043.00;10500273;28;20529;-74
2021/05/17 09:47:43;;;;;;;1.37;1.10;;;;;;;15.52;100.00;98044.34;10497587;28;20235;-74
2021/05/17 09:53:20;;;;;;;1.00;0.70;;;;;;;14.85;88.21;98048.13;10499115;28;20574;-76
2021/05/17 09:58:42;;;;;;;1.03;0.70;;;;;;;15.06;89.78;98052.91;10498497;28;20182;-76
2021/05/17 10:04:06;;;;;;;1.00;0.77;;;;;;;14.68;90.75;98049.56;10498142;28;20655;-77
2021/05/17 10:09:25;;;;;;;1.10;0.80;;;;;;;14.80;89.36;98043.19;10499113;28;20171;-76
2021/05/17 10:14:44;;;;;;;0.80;0.40;;;;;;;14.46;92.88;98054.31;10498309;28;20202;-77
2021/05/17 10:20:05;;;;;;;2.00;0.87;;;;;;;14.92;91.33;98058.19;10497118;28;20183;-76
2021/05/17 10:25:28;;;;;;;1.10;0.73;;;;;;;14.37;95.71;98070.09;10498379;28;20175;-76
2021/05/17 10:30:47;;;;;;;1.30;1.03;;;;;;;13.67;100.00;98066.88;10498299;28;20222;-75
2021/05/17 10:36:07;;;;;;;0.90;0.70;;;;;;;13.10;100.00;98093.16;10495946;28;20170;-76
2021/05/17 10:41:35;;;;;;;0.90;0.80;;;;;;;13.22;100.00;98070.31;10497277;28;20190;-73
2021/05/17 10:46:55;;;;;;;1.47;0.73;;;;;;;13.43;100.00;98059.41;10495818;28;20202;-74
2021/05/17 10:52:17;;;;;;;1.83;1.13;;;;;;;14.53;100.00;98056.06;10497411;28;20202;-73
2021/05/17 10:57:56;;;;;;;2.60;0.70;;;;;;;15.60;98.85;98034.53;10497736;28;20178;-73
2021/05/17 11:03:20;;;;;;;0.90;0.60;;;;;;;15.13;96.69;98044.31;10496197;28;20198;-74
2021/05/17 11:08:48;;;;;;;0.90;0.53;;;;;;;14.63;98.42;98046.59;10495849;28;20228;-73
2021/05/17 11:14:20;;;;;;;0.80;0.50;;;;;;;14.82;99.27;98062.88;10496787;28;20598;-75
2021/05/17 11:19:46;;;;;;;2.07;0.97;;;;;;;13.90;100.00;98077.56;10495937;28;20246;-75
2021/05/17 11:25:05;;;;;;;0.80;0.50;;;;;;;13.49;100.00;98078.97;10497102;28;20578;-76
2021/05/17 11:30:42;;;;;;;0.90;0.60;;;;;;;13.43;100.00;98087.03;10495152;28;20254;-76
2021/05/17 11:36:14;;;;;;;1.00;0.70;;;;;;;13.03;100.00;98076.81;10502375;28;20700;-75
2021/05/17 11:41:46;;;;;;;1.00;0.67;;;;;;;14.49;100.00;98072.81;10504072;28;20171;-75
2021/05/17 11:47:10;;;;;;;0.90;0.60;;;;;;;14.18;100.00;98064.81;10503255;28;20637;-75
2021/05/17 11:52:32;;;;;;;1.20;0.70;;;;;;;14.31;100.00;98077.41;10504276;28;20290;-74
2021/05/17 11:57:52;;;;;;;1.10;0.77;;;;;;;14.94;96.20;98053.75;10504435;28;20183;-75
2021/05/17 12:03:11;;;;;;;1.27;0.70;;;;;;;15.38;90.94;98053.22;10502951;28;20621;-73
2021/05/17 12:08:30;;;;;;;1.90;0.77;;;;;;;15.22;84.58;98058.97;10502940;28;20171;-74
2021/05/17 12:13:49;;;;;;;0.80;0.50;;;;;;;15.70;86.88;98044.41;10502022;28;20281;-74
2021/05/17 12:19:08;;;;;;;5.47;1.73;;;;;;;15.85;79.54;98050.91;10502216;28;20175;-74
2021/05/17 12:24:29;;;;;;;0.90;0.63;;;;;;;16.15;66.15;98038.97;10502293;28;20182;-74
2021/05/17 12:30:03;;;;;;;0.90;0.60;;;;;;;16.84;62.73;98035.88;10501402;28;20227;-74
2021/05/17 12:35:39;;;;;;;0.90;0.50;;;;;;;16.88;60.68;98036.47;10501678;28;20175;-73
2021/05/17 12:40:58;;;;;;;0.90;0.53;;;;;;;16.55;64.44;98036.84;10501490;28;20186;-75
2021/05/17 12:46:17;;;;;;;1.20;0.83;;;;;;;16.41;63.50;98051.34;10499888;28;20230;-73
2021/05/17 12:51:36;;;;;;;1.00;0.70;;;;;;;16.53;64.63;98069.84;10500745;28;20206;-73
2021/05/17 12:57:05;;;;;;;0.90;0.50;;;;;;;16.84;62.60;98060.88;10501917;28;20583;-74
2021/05/17 13:02:25;;;;;;;0.83;0.50;;;;;;;16.50;64.53;98079.09;10499528;28;20182;-74
2021/05/17 13:08:02;;;;;;;0.90;0.63;;;;;;;15.60;70.05;98055.94;10500655;28;20179;-75
2021/05/17 13:14:04;;;;;;;0.90;0.60;;;;;;;15.76;68.07;98064.75;10501276;28;20645;-74
2021/05/17 13:30:00;;;;;;;1.13;0.77;;;;;;;13.81;88.36;98085.75;10498076;28;20262;-74
2021/05/17 13:31:08;;;;;;;0.90;0.50;;;;;;;14.36;89.56;98091.44;10499841;28;20219;-75
2021/05/17 13:36:31;;;;;;;1.40;0.90;;;;;;;14.94;83.13;98088.97;10498372;28;20182;-75
2021/05/17 13:41:50;;;;;;;0.90;0.50;;;;;;;15.22;72.38;98086.69;10500209;28;20179;-75
2021/05/17 13:47:10;;;;;;;0.80;0.50;;;;;;;15.92;66.02;98077.59;10497570;28;20575;-76
2021/05/17 13:52:29;;;;;;;0.90;0.50;;;;;;;16.04;67.00;98074.72;10498058;28;20220;-77
2021/05/17 13:57:51;;;;;;;0.90;0.50;;;;;;;15.92;67.15;98083.16;10499145;28;20171;-75
2021/05/17 14:03:15;;;;;;;2.50;0.90;;;;;;;15.85;71.48;98089.00;10497109;28;20625;-75
2021/05/17 14:08:33;;;;;;;0.80;0.43;;;;;;;15.39;61.55;98076.94;10499031;28;20183;-74
2021/05/17 14:13:53;;;;;;;1.60;0.50;;;;;;;16.24;59.55;98095.25;10498490;28;20206;-75
2021/05/17 14:19:12;;;;;;;0.80;0.40;;;;;;;16.75;57.72;98089.91;10496304;28;20175;-74
2021/05/17 14:24:32;;;;;;;0.80;0.40;;;;;;;16.19;60.71;98097.84;10473211;28;20662;-74
2021/05/17 14:29:51;;;;;;;0.80;0.40;;;;;;;15.88;61.68;98093.59;10455568;28;20685;-75
2021/05/17 14:35:12;;;;;;;1.43;0.60;;;;;;;15.10;65.27;98105.41;10455504;28;20179;-76
2021/05/17 14:40:32;;;;;;;0.80;0.40;;;;;;;15.01;66.66;98111.63;10455637;28;20171;-76
2021/05/17 14:45:52;;;;;;;0.80;0.40;;;;;;;14.42;71.09;98125.59;10456551;28;20199;-75
2021/05/17 14:51:12;;;;;;;0.80;0.50;;;;;;;14.65;73.21;98122.44;10455019;28;20289;-74
2021/05/17 14:56:31;;;;;;;1.60;0.90;;;;;;;14.83;73.09;98119.03;10455268;28;20176;-72
2021/05/17 15:01:50;;;;;;;0.80;0.50;;;;;;;14.96;70.51;98139.13;10456205;28;20175;-73
2021/05/17 15:07:09;;;;;;;0.87;0.50;;;;;;;14.46;73.10;98150.38;10455125;28;20262;-73
2021/05/17 15:12:28;;;;;;;0.80;0.40;;;;;;;13.98;81.08;98175.66;10455444;28;20293;-73
2021/05/17 15:17:49;;;;;;;0.90;0.53;;;;;;;13.10;100.00;98178.75;10453360;28;20179;-74
2021/05/17 15:23:16;;;;;;;0.90;0.53;;;;;;;12.94;100.00;98174.09;10454631;28;20175;-76
2021/05/17 15:28:35;;;;;;;1.00;0.60;;;;;;;13.06;100.00;98180.84;10455177;28;20245;-76
2021/05/17 15:33:55;;;;;;;1.07;0.60;;;;;;;12.97;100.00;98178.72;10453742;28;20218;-77
2021/05/17 15:39:14;;;;;;;0.90;0.50;;;;;;;13.14;100.00;98182.22;10455469;28;20183;-75
2021/05/17 15:44:33;;;;;;;3.23;1.23;;;;;;;13.22;100.00;98186.31;10455186;28;20206;-76
2021/05/17 15:49:52;;;;;;;1.27;0.63;;;;;;;13.29;100.00;98180.59;10452911;28;20182;-76
2021/05/17 15:55:15;;;;;;;1.40;0.60;;;;;;;13.40;100.00;98175.53;10454914;28;20638;-76
2021/05/17 16:00:34;;;;;;;1.03;0.70;;;;;;;13.61;100.00;98176.44;10453837;28;20628;-76
2021/05/17 16:05:53;;;;;;;0.93;0.60;;;;;;;13.52;100.00;98192.13;10453595;28;20179;-76
2021/05/17 16:11:15;;;;;;;1.10;0.70;;;;;;;13.00;100.00;98185.38;10453731;28;20215;-76
2021/05/17 16:16:53;;;;;;;4.00;0.90;;;;;;;12.72;100.00;98219.22;10454855;28;20191;-76
2021/05/17 16:22:13;;;;;;;1.77;1.07;;;;;;;12.32;100.00;98244.66;10460929;28;20180;-75
2021/05/17 16:27:32;;;;;;;1.20;1.10;;;;;;;10.80;100.00;98286.00;10461455;28;20671;-75
2021/05/17 16:32:52;;;;;;;0.80;0.50;;;;;;;10.16;100.00;98286.69;10459835;28;20211;-76
2021/05/17 16:38:11;;;;;;;0.80;0.40;;;;;;;10.05;100.00;98266.81;10461494;28;20258;-76
2021/05/17 16:43:30;;;;;;;0.90;0.60;;;;;;;11.20;100.00;98232.56;10461072;28;20195;-75
2021/05/17 16:49:05;;;;;;;1.20;1.03;;;;;;;11.91;100.00;98224.38;10459758;28;20540;-77
2021/05/17 16:54:26;;;;;;;0.90;0.50;;;;;;;11.93;100.00;98208.97;10460314;28;20211;-76
2021/05/17 16:59:45;;;;;;;0.90;0.70;;;;;;;11.99;100.00;98213.53;10460576;28;20175;-76
2021/05/17 17:05:06;;;;;;;2.80;0.60;;;;;;;12.24;100.00;98210.19;10466893;28;20179;-76
2021/05/17 17:10:25;;;;;;;4.00;3.53;;;;;;;12.21;100.00;98211.81;10459901;28;20172;-76
2021/05/17 17:15:44;;;;;;;0.80;0.50;;;;;;;12.03;100.00;98225.25;10459003;28;20191;-77
2021/05/17 17:21:04;;;;;;;1.00;0.80;;;;;;;11.79;100.00;98236.84;10458365;28;20640;-78
2021/05/17 17:26:26;;;;;;;1.20;1.00;;;;;;;11.87;100.00;98238.25;10459333;28;20685;-77
2021/05/17 17:31:46;;;;;;;1.10;0.97;;;;;;;12.41;100.00;98234.59;10457459;28;20211;-77
2021/05/17 17:37:12;;;;;;;0.90;0.60;;;;;;;12.31;100.00;98240.38;10459068;28;20541;-77
2021/05/17 17:42:32;;;;;;;1.23;0.60;;;;;;;12.81;100.00;98244.97;10458904;28;20199;-76
2021/05/17 17:47:52;;;;;;;0.90;0.57;;;;;;;12.70;100.00;98240.19;10457527;28;20625;-77
2021/05/17 17:53:12;;;;;;;1.03;0.93;;;;;;;12.32;100.00;98237.19;10458179;28;20211;-78
2021/05/17 17:58:30;;;;;;;1.03;0.70;;;;;;;12.09;100.00;98239.31;10457180;28;20638;-78
2021/05/17 18:03:49;;;;;;;3.53;1.07;;;;;;;11.99;100.00;98245.84;10456871;28;20171;-77
2021/05/17 18:09:11;;;;;;;1.10;0.70;;;;;;;11.92;100.00;98248.00;10456887;28;20570;-77
2021/05/17 18:14:30;;;;;;;1.57;0.90;;;;;;;11.89;100.00;98252.38;10457245;28;20207;-78
2021/05/17 18:19:49;;;;;;;1.67;1.27;;;;;;;11.91;100.00;98260.22;10455357;28;20183;-76
2021/05/17 18:25:08;;;;;;;0.80;0.50;;;;;;;11.85;100.00;98257.19;10457094;28;20179;-77
2021/05/17 18:30:28;;;;;;;1.10;0.80;;;;;;;11.94;100.00;98265.63;10455303;28;20219;-77
2021/05/17 18:35:57;;;;;;;0.97;0.80;;;;;;;11.91;100.00;98276.75;10454588;28;20630;-76
2021/05/17 18:41:19;;;;;;;1.87;0.80;;;;;;;11.99;100.00;98281.69;10455791;28;20204;-76
2021/05/17 18:46:38;;;;;;;0.90;0.77;;;;;;;11.95;100.00;98278.22;10456489;28;20183;-76
2021/05/17 18:51:57;;;;;;;1.00;0.80;;;;;;;12.00;100.00;98281.25;10454761;28;20199;-76
2021/05/17 18:57:21;;;;;;;3.00;0.60;;;;;;;12.02;100.00;98300.13;10456238;28;20199;-77
2021/05/17 19:02:41;;;;;;;0.90;0.60;;;;;;;11.93;100.00;98310.19;10454884;28;20593;-76
2021/05/17 19:08:02;;;;;;;0.97;0.50;;;;;;;11.83;100.00;98303.69;10455001;28;20266;-77
2021/05/17 19:13:21;;;;;;;0.80;0.40;;;;;;;11.70;100.00;98318.53;10455509;28;20616;-76
2021/05/17 19:18:41;;;;;;;0.87;0.60;;;;;;;11.70;100.00;98337.81;10454737;28;20183;-77
2021/05/17 19:24:00;;;;;;;1.60;1.07;;;;;;;11.51;100.00;98327.53;10454427;28;20183;-76
2021/05/17 19:29:25;;;;;;;0.80;0.50;;;;;;;11.41;100.00;98328.50;10455137;28;20224;-76
2021/05/17 19:34:44;;;;;;;0.90;0.60;;;;;;;11.39;100.00;98342.72;10452877;28;20582;-76
2021/05/17 19:40:09;;;;;;;0.80;0.50;;;;;;;11.34;100.00;98350.69;10454424;28;20180;-76
2021/05/17 19:45:28;;;;;;;0.90;0.70;;;;;;;11.35;100.00;98360.50;10454321;28;20191;-76
2021/05/17 19:50:47;;;;;;;0.90;0.60;;;;;;;11.37;100.00;98361.63;10453722;28;20560;-78
2021/05/17 19:56:07;;;;;;;0.97;0.70;;;;;;;11.35;100.00;98372.28;10459977;28;20183;-77
2021/05/17 20:01:28;;;;;;;0.90;0.60;;;;;;;11.42;100.00;98369.44;10462829;28;20175;-76
2021/05/17 20:06:52;;;;;;;1.00;0.80;;;;;;;11.43;100.00;98373.72;10460474;28;20179;-78
2021/05/17 20:12:11;;;;;;;1.00;0.60;;;;;;;11.40;100.00;98384.78;10463089;28;20203;-78
2021/05/17 20:17:31;;;;;;;1.83;0.73;;;;;;;11.33;100.00;98388.47;10461001;28;20191;-78
2021/05/17 20:22:52;;;;;;;0.80;0.40;;;;;;;11.17;100.00;98393.88;10461923;28;20184;-78
2021/05/17 20:28:11;;;;;;;4.03;0.80;;;;;;;11.10;100.00;98395.94;10461320;28;20219;-77
2021/05/17 20:38:55;;;;;;;7.20;0.97;;;;;;;11.01;100.00;98392.94;10460894;28;20163;-76
2021/05/17 20:44:14;;;;;;;0.90;0.60;;;;;;;11.01;100.00;98389.44;10461317;28;20168;-75
2021/05/17 20:49:36;;;;;;;1.20;0.90;;;;;;;10.95;100.00;98402.88;10459944;28;20180;-76
2021/05/17 20:54:55;;;;;;;1.00;0.70;;;;;;;10.87;100.00;98395.16;10460299;28;20584;-76
2021/05/17 21:00:15;;;;;;;1.10;0.97;;;;;;;10.80;100.00;98398.81;10460763;28;20172;-76
2021/05/17 21:05:34;;;;;;;1.03;0.77;;;;;;;10.66;100.00;98410.00;10457944;28;20266;-76
2021/05/17 21:10:53;;;;;;;0.93;0.70;;;;;;;10.62;100.00;98414.03;10460213;28;20281;-75
2021/05/17 21:16:12;;;;;;;2.90;0.93;;;;;;;10.52;100.00;98412.97;10459842;28;20230;-77
2021/05/17 21:21:32;;;;;;;1.20;0.90;;;;;;;10.51;100.00;98424.41;10458631;28;20183;-76
2021/05/17 21:26:51;;;;;;;1.43;0.53;;;;;;;10.34;100.00;98412.44;10459318;28;20366;-77
2021/05/17 21:32:10;;;;;;;1.07;0.90;;;;;;;10.28;100.00;98434.53;10456818;28;20609;-77
2021/05/17 21:37:29;;;;;;;3.90;0.90;;;;;;;10.27;100.00;98441.22;10459280;28;20220;-77
2021/05/17 21:42:49;;;;;;;0.90;0.60;;;;;;;10.27;100.00;98454.97;10459058;28;20645;-77
2021/05/17 21:48:08;;;;;;;0.90;0.60;;;;;;;10.22;100.00;98463.66;10456527;28;20164;-77
2021/05/17 21:53:27;;;;;;;1.20;1.10;;;;;;;10.18;100.00;98462.94;10457255;28;20199;-77
2021/05/17 21:58:46;;;;;;;0.90;0.70;;;;;;;10.21;100.00;98465.66;10457436;28;20300;-78
2021/05/17 22:04:06;;;;;;;1.33;1.23;;;;;;;10.07;100.00;98474.03;10456990;28;20183;-78
2021/05/17 22:15:04;;;;;;;1.30;1.07;;;;;;;9.92;100.00;98488.34;10456998;28;20638;-78
2021/05/17 22:20:24;;;;;;;1.30;1.17;;;;;;;9.87;100.00;98495.06;10454910;28;20623;-77
2021/05/17 22:25:44;;;;;;;1.20;1.00;;;;;;;9.78;100.00;98500.25;10457388;28;20253;-77
2021/05/17 22:31:04;;;;;;;1.40;1.20;;;;;;;9.75;100.00;98501.06;10457075;28;20222;-76
2021/05/17 22:36:22;;;;;;;4.20;0.80;;;;;;;9.67;100.00;98504.28;10454779;28;20175;-76
2021/05/17 22:41:42;;;;;;;0.90;0.70;;;;;;;9.63;100.00;98498.84;10455764;28;20168;-76
2021/05/17 22:47:01;;;;;;;3.47;0.70;;;;;;;9.57;100.00;98511.41;10454545;28;20254;-76
2021/05/17 22:52:20;;;;;;;1.13;0.97;;;;;;;9.57;100.00;98513.41;10456376;28;20199;-76
2021/05/17 22:57:39;;;;;;;1.10;0.77;;;;;;;9.51;100.00;98515.03;10456444;28;20167;-76
2021/05/17 23:02:59;;;;;;;1.33;0.87;;;;;;;9.55;100.00;98518.50;10454906;28;20172;-76
2021/05/17 23:08:18;;;;;;;1.30;1.00;;;;;;;9.52;100.00;98525.59;10456219;28;20179;-76
2021/05/17 23:13:36;;;;;;;1.10;1.00;;;;;;;9.47;100.00;98517.00;10455349;28;20693;-76
2021/05/17 23:18:55;;;;;;;1.77;0.90;;;;;;;9.47;100.00;98536.22;10454575;28;20630;-77
2021/05/17 23:28:00;;;;;;;1.10;0.50;;;;;;;9.56;100.00;98523.63;10455768;28;20220;-77
2021/05/17 23:29:59;;;;;;;1.07;0.80;;;;;;;9.55;100.00;98533.03;10458326;28;20223;-77
2021/05/17 23:35:18;;;;;;;0.93;0.77;;;;;;;9.65;100.00;98537.63;10462174;28;20285;-76
2021/05/17 23:40:41;;;;;;;1.10;1.00;;;;;;;9.62;100.00;98541.22;10463721;28;20583;-76
2021/05/17 23:46:01;;;;;;;0.90;0.70;;;;;;;9.68;100.00;98536.81;10463757;28;20175;-77
2021/05/17 23:51:20;;;;;;;0.93;0.63;;;;;;;9.79;100.00;98540.25;10460687;28;20203;-78
2021/05/17 23:56:39;;;;;;;2.10;0.60;;;;;;;9.79;100.00;98544.97;10462355;28;20179;-76
